Weather at Hamilton International Airport

Public forecast

Using degrees Celsius for public forecast. Weather courtesy of forecast.io.

Closest aviation weather report (METAR) to Hamilton International Airport

Closest report is Auckland International Airport, 57.5 nm (106.6 km) NNW. Retrieved 2022/08/11 16:30 UTC (17 minutes ago):

NZAA 111630Z AUTO 16005KT 9999 NCD 05/01 Q1019 NOSIG

Closest aviation forecast (TAF) to Hamilton International Airport

Closest forecast is Auckland International Airport, 57.5 nm (106.6 km) NNW. Retrieved 2022/08/11 12:12 UTC (5 hours ago):

TAF NZAA 111111Z 1112/1212 16008KT 9999 FEW040 BECMG 1121/1123 24015KT BECMG 1209/1211 20005KT